sensor_id;sensor_type;location;lat;lon;timestamp;pressure;altitude;pressure_sealevel;temperature;humidity
18858;BME280;9558;50.178;8.370;2023-03-19T00:02:16;97907.66;;;8.92;100.00
18858;BME280;9558;50.178;8.370;2023-03-19T00:04:43;97905.09;;;8.92;100.00
18858;BME280;9558;50.178;8.370;2023-03-19T00:07:10;97904.09;;;8.93;100.00
18858;BME280;9558;50.178;8.370;2023-03-19T00:09:38;97912.47;;;8.95;100.00
18858;BME280;9558;50.178;8.370;2023-03-19T00:12:05;97910.88;;;8.94;100.00
18858;BME280;9558;50.178;8.370;2023-03-19T00:14:32;97906.97;;;8.98;100.00
18858;BME280;9558;50.178;8.370;2023-03-19T00:16:58;97909.56;;;8.98;100.00
18858;BME280;9558;50.178;8.370;2023-03-19T00:19:25;97916.31;;;8.99;100.00
18858;BME280;9558;50.178;8.370;2023-03-19T00:21:52;97900.84;;;8.99;100.00
18858;BME280;9558;50.178;8.370;2023-03-19T00:24:19;97909.19;;;9.01;100.00
18858;BME280;9558;50.178;8.370;2023-03-19T00:26:47;97908.69;;;9.06;100.00
18858;BME280;9558;50.178;8.370;2023-03-19T00:29:14;97906.94;;;9.06;100.00
18858;BME280;9558;50.178;8.370;2023-03-19T00:31:41;97907.88;;;9.05;100.00
18858;BME280;9558;50.178;8.370;2023-03-19T00:34:08;97909.50;;;9.06;100.00
18858;BME280;9558;50.178;8.370;2023-03-19T00:36:36;97914.66;;;9.06;100.00
18858;BME280;9558;50.178;8.370;2023-03-19T00:39:03;97906.41;;;9.11;100.00
18858;BME280;9558;50.178;8.370;2023-03-19T00:41:29;97911.75;;;9.09;100.00
18858;BME280;9558;50.178;8.370;2023-03-19T00:43:58;97905.59;;;9.10;100.00
18858;BME280;9558;50.178;8.370;2023-03-19T00:46:25;97914.94;;;9.11;100.00
18858;BME280;9558;50.178;8.370;2023-03-19T00:48:51;97911.03;;;9.15;100.00
18858;BME280;9558;50.178;8.370;2023-03-19T00:51:20;97907.03;;;9.13;100.00
18858;BME280;9558;50.178;8.370;2023-03-19T00:53:47;97914.75;;;9.13;100.00
18858;BME280;9558;50.178;8.370;2023-03-19T00:56:14;97919.75;;;9.14;100.00
18858;BME280;9558;50.178;8.370;2023-03-19T00:58:42;97918.16;;;9.13;100.00
18858;BME280;9558;50.178;8.370;2023-03-19T01:01:12;97920.75;;;9.13;100.00
18858;BME280;9558;50.178;8.370;2023-03-19T01:03:39;97918.16;;;9.13;100.00
18858;BME280;9558;50.178;8.370;2023-03-19T01:06:06;97926.53;;;9.15;100.00
18858;BME280;9558;50.178;8.370;2023-03-19T01:08:32;97918.16;;;9.13;100.00
18858;BME280;9558;50.178;8.370;2023-03-19T01:11:04;97913.00;;;9.13;100.00
18858;BME280;9558;50.178;8.370;2023-03-19T01:13:31;97909.78;;;9.11;100.00
18858;BME280;9558;50.178;8.370;2023-03-19T01:15:57;97908.00;;;9.12;100.00
18858;BME280;9558;50.178;8.370;2023-03-19T01:18:25;97901.06;;;9.12;100.00
18858;BME280;9558;50.178;8.370;2023-03-19T01:20:52;97899.09;;;9.14;100.00
18858;BME280;9558;50.178;8.370;2023-03-19T01:23:18;97903.47;;;9.14;100.00
18858;BME280;9558;50.178;8.370;2023-03-19T01:25:45;97904.44;;;9.13;100.00
18858;BME280;9558;50.178;8.370;2023-03-19T01:28:11;97907.84;;;9.13;100.00
18858;BME280;9558;50.178;8.370;2023-03-19T01:30:38;97908.81;;;9.12;100.00
18858;BME280;9558;50.178;8.370;2023-03-19T01:33:05;97910.06;;;9.16;100.00
18858;BME280;9558;50.178;8.370;2023-03-19T01:35:33;97912.34;;;9.11;100.00
18858;BME280;9558;50.178;8.370;2023-03-19T01:38:00;97906.41;;;9.11;100.00
18858;BME280;9558;50.178;8.370;2023-03-19T01:40:26;97911.75;;;9.09;100.00
18858;BME280;9558;50.178;8.370;2023-03-19T01:42:54;97910.13;;;9.08;100.00
18858;BME280;9558;50.178;8.370;2023-03-19T01:45:30;97901.41;;;9.09;100.00
18858;BME280;9558;50.178;8.370;2023-03-19T01:47:56;97904.34;;;9.06;100.00
18858;BME280;9558;50.178;8.370;2023-03-19T01:50:26;97904.34;;;9.06;100.00
18858;BME280;9558;50.178;8.370;2023-03-19T01:52:55;97911.25;;;9.06;100.00
18858;BME280;9558;50.178;8.370;2023-03-19T01:55:21;97916.44;;;9.06;100.00
18858;BME280;9558;50.178;8.370;2023-03-19T01:57:48;97904.34;;;9.06;100.00
18858;BME280;9558;50.178;8.370;2023-03-19T02:00:15;97891.78;;;9.03;100.00
18858;BME280;9558;50.178;8.370;2023-03-19T02:02:44;97895.34;;;9.02;100.00
18858;BME280;9558;50.178;8.370;2023-03-19T02:05:14;97890.16;;;9.02;100.00
18858;BME280;9558;50.178;8.370;2023-03-19T02:07:46;97891.31;;;8.99;100.00
18858;BME280;9558;50.178;8.370;2023-03-19T02:10:15;97893.72;;;9.01;100.00
18858;BME280;9558;50.178;8.370;2023-03-19T02:12:42;97888.56;;;9.01;100.00
18858;BME280;9558;50.178;8.370;2023-03-19T02:15:09;97905.00;;;9.00;100.00
18858;BME280;9558;50.178;8.370;2023-03-19T02:17:37;97907.28;;;9.03;100.00
18858;BME280;9558;50.178;8.370;2023-03-19T02:20:06;97904.03;;;9.01;100.00
18858;BME280;9558;50.178;8.370;2023-03-19T02:22:40;97898.09;;;9.01;100.00
18858;BME280;9558;50.178;8.370;2023-03-19T02:25:11;97911.97;;;8.99;100.00
18858;BME280;9558;50.178;8.370;2023-03-19T02:27:40;97915.34;;;9.00;100.00
18858;BME280;9558;50.178;8.370;2023-03-19T02:30:18;97912.75;;;9.00;100.00
18858;BME280;9558;50.178;8.370;2023-03-19T02:32:45;97917.91;;;9.00;100.00
18858;BME280;9558;50.178;8.370;2023-03-19T02:35:12;97920.50;;;9.00;100.00
18858;BME280;9558;50.178;8.370;2023-03-19T02:37:38;97917.91;;;9.00;100.00
18858;BME280;9558;50.178;8.370;2023-03-19T02:40:08;97922.75;;;9.03;100.00
18858;BME280;9558;50.178;8.370;2023-03-19T02:42:37;97918.03;;;9.07;100.00
18858;BME280;9558;50.178;8.370;2023-03-19T02:45:06;97919.19;;;9.04;100.00
18858;BME280;9558;50.178;8.370;2023-03-19T02:47:33;97912.09;;;9.06;100.00
18858;BME280;9558;50.178;8.370;2023-03-19T02:49:59;97909.50;;;9.06;100.00
18858;BME280;9558;50.178;8.370;2023-03-19T02:52:26;97918.84;;;9.07;100.00
18858;BME280;9558;50.178;8.370;2023-03-19T02:54:53;97914.94;;;9.11;100.00
18858;BME280;9558;50.178;8.370;2023-03-19T02:57:19;97905.94;;;9.07;100.00
18858;BME280;9558;50.178;8.370;2023-03-19T02:59:46;97911.09;;;9.07;100.00
18858;BME280;9558;50.178;8.370;2023-03-19T03:02:14;97913.56;;;9.01;100.00
18858;BME280;9558;50.178;8.370;2023-03-19T03:04:40;97909.72;;;8.96;100.00
18858;BME280;9558;50.178;8.370;2023-03-19T03:07:07;97913.78;;;8.91;100.00
18858;BME280;9558;50.178;8.370;2023-03-19T03:09:34;97912.53;;;8.87;100.00
18858;BME280;9558;50.178;8.370;2023-03-19T03:12:01;97914.78;;;8.81;100.00
18858;BME280;9558;50.178;8.370;2023-03-19T03:14:27;97916.75;;;8.79;100.00
18858;BME280;9558;50.178;8.370;2023-03-19T03:16:54;97920.97;;;8.72;100.00
18858;BME280;9558;50.178;8.370;2023-03-19T03:19:22;97907.59;;;8.69;100.00
18858;BME280;9558;50.178;8.370;2023-03-19T03:21:49;97916.78;;;8.71;100.00
18858;BME280;9558;50.178;8.370;2023-03-19T03:24:16;97911.34;;;8.66;100.00
18858;BME280;9558;50.178;8.370;2023-03-19T03:26:43;97918.00;;;8.60;100.00
18858;BME280;9558;50.178;8.370;2023-03-19T03:29:09;97915.88;;;8.56;100.00
18858;BME280;9558;50.178;8.370;2023-03-19T03:31:36;97911.06;;;8.53;100.00
18858;BME280;9558;50.178;8.370;2023-03-19T03:34:03;97915.63;;;8.51;100.00
18858;BME280;9558;50.178;8.370;2023-03-19T03:36:30;97923.69;;;8.47;100.00
18858;BME280;9558;50.178;8.370;2023-03-19T03:38:58;97909.19;;;8.46;100.00
18858;BME280;9558;50.178;8.370;2023-03-19T03:41:25;97919.66;;;8.45;100.00
18858;BME280;9558;50.178;8.370;2023-03-19T03:43:51;97919.16;;;8.41;100.00
18858;BME280;9558;50.178;8.370;2023-03-19T03:46:18;97917.56;;;8.40;100.00
18858;BME280;9558;50.178;8.370;2023-03-19T03:48:44;97916.13;;;8.38;100.00
18858;BME280;9558;50.178;8.370;2023-03-19T03:51:13;97916.28;;;8.36;100.00
18858;BME280;9558;50.178;8.370;2023-03-19T03:53:41;97919.81;;;8.35;100.00
18858;BME280;9558;50.178;8.370;2023-03-19T03:56:08;97912.09;;;8.35;100.00
18858;BME280;9558;50.178;8.370;2023-03-19T03:58:34;97921.44;;;8.36;100.00
18858;BME280;9558;50.178;8.370;2023-03-19T04:01:00;97917.88;;;8.37;100.00
18858;BME280;9558;50.178;8.370;2023-03-19T04:03:27;97920.44;;;8.37;100.00
18858;BME280;9558;50.178;8.370;2023-03-19T04:05:54;97926.59;;;8.36;100.00
18858;BME280;9558;50.178;8.370;2023-03-19T04:08:20;97932.72;;;8.35;100.00
18858;BME280;9558;50.178;8.370;2023-03-19T04:10:49;97933.22;;;8.30;100.00
18858;BME280;9558;50.178;8.370;2023-03-19T04:13:15;97933.06;;;8.24;100.00
18858;BME280;9558;50.178;8.370;2023-03-19T04:15:42;97937.63;;;8.13;100.00
18858;BME280;9558;50.178;8.370;2023-03-19T04:18:09;97937.13;;;8.10;100.00
18858;BME280;9558;50.178;8.370;2023-03-19T04:20:36;97941.16;;;8.04;100.00
18858;BME280;9558;50.178;8.370;2023-03-19T04:23:02;97940.88;;;7.99;100.00
18858;BME280;9558;50.178;8.370;2023-03-19T04:25:29;97938.94;;;7.93;100.00
18858;BME280;9558;50.178;8.370;2023-03-19T04:27:57;97946.03;;;7.91;100.00
18858;BME280;9558;50.178;8.370;2023-03-19T04:30:24;97941.22;;;7.88;100.00
18858;BME280;9558;50.178;8.370;2023-03-19T04:32:50;97941.38;;;7.86;100.00
18858;BME280;9558;50.178;8.370;2023-03-19T04:35:17;97942.16;;;7.87;100.00
18858;BME280;9558;50.178;8.370;2023-03-19T04:37:44;97940.88;;;7.83;100.00
18858;BME280;9558;50.178;8.370;2023-03-19T04:40:13;97935.09;;;7.81;100.00
18858;BME280;9558;50.178;8.370;2023-03-19T04:42:39;97934.44;;;7.78;100.00
18858;BME280;9558;50.178;8.370;2023-03-19T04:45:10;97932.84;;;7.77;100.00
18858;BME280;9558;50.178;8.370;2023-03-19T04:47:37;97941.06;;;7.73;100.00
18858;BME280;9558;50.178;8.370;2023-03-19T04:50:04;97958.44;;;7.71;100.00
18858;BME280;9558;50.178;8.370;2023-03-19T04:52:32;97961.19;;;7.69;100.00
18858;BME280;9558;50.178;8.370;2023-03-19T04:54:58;97952.81;;;7.67;100.00
18858;BME280;9558;50.178;8.370;2023-03-19T04:57:25;97961.53;;;7.66;100.00
18858;BME280;9558;50.178;8.370;2023-03-19T04:59:51;97953.47;;;7.61;100.00
18858;BME280;9558;50.178;8.370;2023-03-19T05:02:19;97964.88;;;7.58;100.00
18858;BME280;9558;50.178;8.370;2023-03-19T05:04:46;97960.06;;;7.55;100.00
18858;BME280;9558;50.178;8.370;2023-03-19T05:07:12;97966.66;;;7.50;100.00
18858;BME280;9558;50.178;8.370;2023-03-19T05:09:39;97963.44;;;7.48;100.00
18858;BME280;9558;50.178;8.370;2023-03-19T05:12:08;97971.00;;;7.41;100.00
18858;BME280;9558;50.178;8.370;2023-03-19T05:14:34;97967.94;;;7.37;100.00
18858;BME280;9558;50.178;8.370;2023-03-19T05:17:01;97969.69;;;7.29;100.00
18858;BME280;9558;50.178;8.370;2023-03-19T05:19:29;97967.91;;;7.21;100.00
18858;BME280;9558;50.178;8.370;2023-03-19T05:21:56;97963.41;;;7.15;100.00
18858;BME280;9558;50.178;8.370;2023-03-19T05:24:22;97979.47;;;7.08;100.00
18858;BME280;9558;50.178;8.370;2023-03-19T05:26:49;97984.44;;;7.02;100.00
18858;BME280;9558;50.178;8.370;2023-03-19T05:29:15;97985.56;;;6.99;100.00
18858;BME280;9558;50.178;8.370;2023-03-19T05:31:42;97984.25;;;6.95;100.00
18858;BME280;9558;50.178;8.370;2023-03-19T05:34:08;97984.41;;;6.94;100.00
18858;BME280;9558;50.178;8.370;2023-03-19T05:36:36;97994.03;;;6.91;100.00
18858;BME280;9558;50.178;8.370;2023-03-19T05:39:03;97995.19;;;6.89;100.00
18858;BME280;9558;50.178;8.370;2023-03-19T05:41:30;97990.50;;;6.92;100.00
18858;BME280;9558;50.178;8.370;2023-03-19T05:43:57;97988.56;;;6.86;100.00
18858;BME280;9558;50.178;8.370;2023-03-19T05:46:24;97993.06;;;6.84;100.00
18858;BME280;9558;50.178;8.370;2023-03-19T05:48:51;97999.34;;;6.82;100.00
18858;BME280;9558;50.178;8.370;2023-03-19T05:51:18;97995.94;;;6.81;100.00
18858;BME280;9558;50.178;8.370;2023-03-19T05:53:46;97996.75;;;6.82;100.00
18858;BME280;9558;50.178;8.370;2023-03-19T05:56:12;98000.28;;;6.81;100.00
18858;BME280;9558;50.178;8.370;2023-03-19T05:58:38;97998.03;;;6.78;100.00
18858;BME280;9558;50.178;8.370;2023-03-19T06:01:05;97999.94;;;6.75;100.00
18858;BME280;9558;50.178;8.370;2023-03-19T06:03:31;98008.63;;;6.74;100.00
18858;BME280;9558;50.178;8.370;2023-03-19T06:05:58;98018.75;;;6.76;100.00
18858;BME280;9558;50.178;8.370;2023-03-19T06:08:25;98026.97;;;6.80;100.00
18858;BME280;9558;50.178;8.370;2023-03-19T06:10:53;98022.31;;;6.83;100.00
18858;BME280;9558;50.178;8.370;2023-03-19T06:13:19;98029.06;;;6.84;100.00
18858;BME280;9558;50.178;8.370;2023-03-19T06:15:47;98026.34;;;6.86;100.00
18858;BME280;9558;50.178;8.370;2023-03-19T06:18:13;98020.59;;;6.92;100.00
18858;BME280;9558;50.178;8.370;2023-03-19T06:20:40;98027.84;;;6.97;100.00
18858;BME280;9558;50.178;8.370;2023-03-19T06:23:07;98019.63;;;7.01;100.00
18858;BME280;9558;50.178;8.370;2023-03-19T06:25:33;98020.16;;;7.05;100.00
18858;BME280;9558;50.178;8.370;2023-03-19T06:28:02;98022.25;;;7.09;100.00
18858;BME280;9558;50.178;8.370;2023-03-19T06:30:29;98031.91;;;7.16;100.00
18858;BME280;9558;50.178;8.370;2023-03-19T06:32:55;98028.25;;;7.26;100.00
18858;BME280;9558;50.178;8.370;2023-03-19T06:35:22;98022.78;;;7.30;100.00
18858;BME280;9558;50.178;8.370;2023-03-19T06:37:48;98035.16;;;7.34;100.00
18858;BME280;9558;50.178;8.370;2023-03-19T06:40:15;98030.38;;;7.39;100.00
18858;BME280;9558;50.178;8.370;2023-03-19T06:42:43;98029.09;;;7.43;100.00
18858;BME280;9558;50.178;8.370;2023-03-19T06:45:12;98040.69;;;7.48;100.00
18858;BME280;9558;50.178;8.370;2023-03-19T06:47:40;98040.69;;;7.56;100.00
18858;BME280;9558;50.178;8.370;2023-03-19T06:50:08;98032.00;;;7.57;100.00
18858;BME280;9558;50.178;8.370;2023-03-19T06:52:34;98039.41;;;7.60;100.00
18858;BME280;9558;50.178;8.370;2023-03-19T06:55:01;98047.47;;;7.65;100.00
18858;BME280;9558;50.178;8.370;2023-03-19T06:57:28;98048.75;;;7.69;100.00
18858;BME280;9558;50.178;8.370;2023-03-19T06:59:55;98045.53;;;7.75;100.00
18858;BME280;9558;50.178;8.370;2023-03-19T07:02:23;98048.78;;;7.77;100.00
18858;BME280;9558;50.178;8.370;2023-03-19T07:04:50;98045.56;;;7.84;100.00
18858;BME280;9558;50.178;8.370;2023-03-19T07:07:17;98049.44;;;7.96;100.00
18858;BME280;9558;50.178;8.370;2023-03-19T07:09:43;98047.81;;;8.03;100.00
18858;BME280;9558;50.178;8.370;2023-03-19T07:12:10;98055.53;;;8.11;100.00
18858;BME280;9558;50.178;8.370;2023-03-19T07:14:37;98062.78;;;8.16;100.00
18858;BME280;9558;50.178;8.370;2023-03-19T07:17:03;98067.28;;;8.22;100.00
18858;BME280;9558;50.178;8.370;2023-03-19T07:19:31;98060.69;;;8.28;100.00
18858;BME280;9558;50.178;8.370;2023-03-19T07:21:58;98071.31;;;8.33;100.00
18858;BME280;9558;50.178;8.370;2023-03-19T07:24:25;98067.75;;;8.42;100.00
18858;BME280;9558;50.178;8.370;2023-03-19T07:26:51;98078.84;;;8.43;100.00
18858;BME280;9558;50.178;8.370;2023-03-19T07:29:18;98078.56;;;8.38;100.00
18858;BME280;9558;50.178;8.370;2023-03-19T07:31:44;98079.03;;;8.41;100.00
18858;BME280;9558;50.178;8.370;2023-03-19T07:34:11;98081.00;;;8.47;100.00
18858;BME280;9558;50.178;8.370;2023-03-19T07:36:39;98087.13;;;8.55;100.00
18858;BME280;9558;50.178;8.370;2023-03-19T07:39:05;98079.50;;;8.61;100.00
18858;BME280;9558;50.178;8.370;2023-03-19T07:41:31;98085.44;;;8.70;100.00
18858;BME280;9558;50.178;8.370;2023-03-19T07:43:58;98085.91;;;8.82;100.00
18858;BME280;9558;50.178;8.370;2023-03-19T07:46:25;98088.78;;;8.95;100.00
18858;BME280;9558;50.178;8.370;2023-03-19T07:48:52;98082.28;;;9.08;100.00
18858;BME280;9558;50.178;8.370;2023-03-19T07:51:18;98081.75;;;9.21;100.00
18858;BME280;9558;50.178;8.370;2023-03-19T07:53:46;98077.78;;;9.33;100.00
18858;BME280;9558;50.178;8.370;2023-03-19T07:56:13;98077.91;;;9.48;100.00
18858;BME280;9558;50.178;8.370;2023-03-19T07:58:40;98086.69;;;9.62;100.00
18858;BME280;9558;50.178;8.370;2023-03-19T08:01:06;98084.34;;;9.75;100.00
18858;BME280;9558;50.178;8.370;2023-03-19T08:03:33;98081.97;;;9.89;100.00
18858;BME280;9558;50.178;8.370;2023-03-19T08:05:59;98088.38;;;10.01;100.00
18858;BME280;9558;50.178;8.370;2023-03-19T08:08:26;98086.63;;;10.16;100.00
18858;BME280;9558;50.178;8.370;2023-03-19T08:10:54;98090.91;;;10.24;100.00
18858;BME280;9558;50.178;8.370;2023-03-19T08:13:21;98091.03;;;10.31;100.00
18858;BME280;9558;50.178;8.370;2023-03-19T08:15:48;98093.59;;;10.39;100.00
18858;BME280;9558;50.178;8.370;2023-03-19T08:18:15;98088.69;;;10.44;100.00
18858;BME280;9558;50.178;8.370;2023-03-19T08:20:43;98078.25;;;10.52;100.00
18858;BME280;9558;50.178;8.370;2023-03-19T08:23:10;98079.06;;;10.53;100.00
18858;BME280;9558;50.178;8.370;2023-03-19T08:25:36;98084.69;;;10.57;100.00
18858;BME280;9558;50.178;8.370;2023-03-19T08:28:05;98081.91;;;10.58;100.00
18858;BME280;9558;50.178;8.370;2023-03-19T08:30:34;98086.56;;;10.63;100.00
18858;BME280;9558;50.178;8.370;2023-03-19T08:33:01;98090.41;;;10.67;100.00
18858;BME280;9558;50.178;8.370;2023-03-19T08:35:27;98094.84;;;10.73;100.00
18858;BME280;9558;50.178;8.370;2023-03-19T08:37:54;98096.94;;;10.78;100.00
18858;BME280;9558;50.178;8.370;2023-03-19T08:40:21;98103.00;;;10.85;100.00
18858;BME280;9558;50.178;8.370;2023-03-19T08:42:48;98094.69;;;10.89;100.00
18858;BME280;9558;50.178;8.370;2023-03-19T08:45:16;98111.91;;;10.97;100.00
18858;BME280;9558;50.178;8.370;2023-03-19T08:47:43;98112.66;;;11.06;100.00
18858;BME280;9558;50.178;8.370;2023-03-19T08:50:10;98111.94;;;11.12;98.69
18858;BME280;9558;50.178;8.370;2023-03-19T08:52:36;98117.19;;;11.19;99.08
18858;BME280;9558;50.178;8.370;2023-03-19T08:55:04;98109.13;;;11.29;98.32
18858;BME280;9558;50.178;8.370;2023-03-19T08:57:31;98109.41;;;11.34;95.22
18858;BME280;9558;50.178;8.370;2023-03-19T08:59:58;98109.91;;;11.44;96.39
18858;BME280;9558;50.178;8.370;2023-03-19T09:02:26;98108.19;;;11.51;96.73
18858;BME280;9558;50.178;8.370;2023-03-19T09:04:53;98121.13;;;11.66;95.25
18858;BME280;9558;50.178;8.370;2023-03-19T09:07:19;98115.88;;;11.81;94.61
18858;BME280;9558;50.178;8.370;2023-03-19T09:09:46;98127.66;;;11.99;93.90
18858;BME280;9558;50.178;8.370;2023-03-19T09:12:14;98115.69;;;12.19;93.52
18858;BME280;9558;50.178;8.370;2023-03-19T09:14:41;98119.59;;;12.37;92.50
18858;BME280;9558;50.178;8.370;2023-03-19T09:17:08;98119.16;;;12.55;92.45
18858;BME280;9558;50.178;8.370;2023-03-19T09:19:36;98125.41;;;12.67;88.74
18858;BME280;9558;50.178;8.370;2023-03-19T09:22:03;98122.09;;;12.80;90.30
18858;BME280;9558;50.178;8.370;2023-03-19T09:24:30;98119.81;;;12.99;88.39
18858;BME280;9558;50.178;8.370;2023-03-19T09:26:56;98123.47;;;13.11;88.90
18858;BME280;9558;50.178;8.370;2023-03-19T09:29:23;98132.09;;;13.18;83.57
18858;BME280;9558;50.178;8.370;2023-03-19T09:31:49;98141.16;;;13.29;85.24
18858;BME280;9558;50.178;8.370;2023-03-19T09:34:16;98137.63;;;13.37;84.58
18858;BME280;9558;50.178;8.370;2023-03-19T09:36:44;98134.03;;;13.38;83.96
18858;BME280;9558;50.178;8.370;2023-03-19T09:39:10;98139.03;;;13.46;84.51
18858;BME280;9558;50.178;8.370;2023-03-19T09:41:45;98146.09;;;13.59;82.99
18858;BME280;9558;50.178;8.370;2023-03-19T09:44:19;98142.94;;;13.70;82.24
18858;BME280;9558;50.178;8.370;2023-03-19T09:46:50;98147.16;;;13.85;80.50
18858;BME280;9558;50.178;8.370;2023-03-19T09:49:21;98146.00;;;13.94;81.63
18858;BME280;9558;50.178;8.370;2023-03-19T09:51:54;98149.22;;;14.03;80.73
18858;BME280;9558;50.178;8.370;2023-03-19T09:54:26;98145.22;;;14.07;78.33
18858;BME280;9558;50.178;8.370;2023-03-19T09:56:55;98147.81;;;14.20;79.08
18858;BME280;9558;50.178;8.370;2023-03-19T09:59:23;98137.84;;;14.24;77.73
18858;BME280;9558;50.178;8.370;2023-03-19T10:01:57;98134.22;;;14.31;77.85
18858;BME280;9558;50.178;8.370;2023-03-19T10:04:36;98134.03;;;14.40;78.44
18858;BME280;9558;50.178;8.370;2023-03-19T10:07:15;98137.44;;;14.47;75.23
18858;BME280;9558;50.178;8.370;2023-03-19T10:09:53;98132.03;;;14.55;77.61
18858;BME280;9558;50.178;8.370;2023-03-19T10:12:38;98131.84;;;14.70;77.16
18858;BME280;9558;50.178;8.370;2023-03-19T10:15:16;98128.81;;;14.80;74.61
18858;BME280;9558;50.178;8.370;2023-03-19T10:17:53;98131.41;;;14.80;74.95
18858;BME280;9558;50.178;8.370;2023-03-19T10:20:27;98131.78;;;14.90;76.12
18858;BME280;9558;50.178;8.370;2023-03-19T10:23:00;98124.97;;;14.96;76.12
18858;BME280;9558;50.178;8.370;2023-03-19T10:25:30;98134.59;;;14.95;73.36
18858;BME280;9558;50.178;8.370;2023-03-19T10:27:59;98129.19;;;14.97;75.96
18858;BME280;9558;50.178;8.370;2023-03-19T10:30:31;98134.59;;;14.95;75.86
18858;BME280;9558;50.178;8.370;2023-03-19T10:33:06;98136.00;;;14.91;76.33
18858;BME280;9558;50.178;8.370;2023-03-19T10:35:40;98136.41;;;14.88;74.92
18858;BME280;9558;50.178;8.370;2023-03-19T10:38:19;98134.22;;;14.72;71.74
18858;BME280;9558;50.178;8.370;2023-03-19T10:40:54;98133.84;;;14.68;75.65
18858;BME280;9558;50.178;8.370;2023-03-19T10:43:24;98137.28;;;14.62;75.72
18858;BME280;9558;50.178;8.370;2023-03-19T10:45:50;98146.25;;;14.52;76.03
18858;BME280;9558;50.178;8.370;2023-03-19T10:48:18;98145.84;;;14.42;75.94
18858;BME280;9558;50.178;8.370;2023-03-19T10:50:48;98144.22;;;14.34;75.83
18858;BME280;9558;50.178;8.370;2023-03-19T10:53:28;98147.47;;;14.23;76.32
18858;BME280;9558;50.178;8.370;2023-03-19T10:56:00;98152.44;;;14.18;77.11
18858;BME280;9558;50.178;8.370;2023-03-19T10:58:28;98147.84;;;14.13;77.38
18858;BME280;9558;50.178;8.370;2023-03-19T11:00:57;98160.25;;;14.05;75.45
18858;BME280;9558;50.178;8.370;2023-03-19T11:03:30;98160.63;;;14.02;77.23
18858;BME280;9558;50.178;8.370;2023-03-19T11:06:16;98156.78;;;13.97;76.99
18858;BME280;9558;50.178;8.370;2023-03-19T11:08:51;98161.00;;;13.98;77.14
18858;BME280;9558;50.178;8.370;2023-03-19T11:11:31;98165.22;;;13.99;76.04
18858;BME280;9558;50.178;8.370;2023-03-19T11:14:04;98168.22;;;13.96;75.50
18858;BME280;9558;50.178;8.370;2023-03-19T11:16:31;98163.41;;;13.93;75.60
18858;BME280;9558;50.178;8.370;2023-03-19T11:18:57;98166.59;;;13.82;76.11
18858;BME280;9558;50.178;8.370;2023-03-19T11:21:28;98172.56;;;13.76;76.18
18858;BME280;9558;50.178;8.370;2023-03-19T11:24:01;98164.94;;;13.68;76.75
18858;BME280;9558;50.178;8.370;2023-03-19T11:26:28;98163.13;;;13.68;77.52
18858;BME280;9558;50.178;8.370;2023-03-19T11:29:01;98165.75;;;13.68;77.89
18858;BME280;9558;50.178;8.370;2023-03-19T11:31:33;98162.16;;;13.69;79.02
18858;BME280;9558;50.178;8.370;2023-03-19T11:34:19;98154.94;;;13.71;79.11
18858;BME280;9558;50.178;8.370;2023-03-19T11:36:55;98166.97;;;13.72;79.29
18858;BME280;9558;50.178;8.370;2023-03-19T11:39:27;98159.75;;;13.74;79.66
18858;BME280;9558;50.178;8.370;2023-03-19T11:42:23;98164.56;;;13.71;80.23
18858;BME280;9558;50.178;8.370;2023-03-19T11:45:03;98169.31;;;13.67;80.24
18858;BME280;9558;50.178;8.370;2023-03-19T11:47:40;98160.50;;;13.61;79.93
18858;BME280;9558;50.178;8.370;2023-03-19T11:50:14;98153.28;;;13.57;80.66
18858;BME280;9558;50.178;8.370;2023-03-19T11:52:59;98152.91;;;13.53;81.50
18858;BME280;9558;50.178;8.370;2023-03-19T11:55:33;98145.50;;;13.57;81.83
18858;BME280;9558;50.178;8.370;2023-03-19T11:58:16;98147.69;;;13.60;83.77
18858;BME280;9558;50.178;8.370;2023-03-19T12:00:46;98140.72;;;13.67;83.08
18858;BME280;9558;50.178;8.370;2023-03-19T12:03:40;98142.34;;;13.81;83.62
18858;BME280;9558;50.178;8.370;2023-03-19T12:06:18;98146.81;;;14.01;84.15
18858;BME280;9558;50.178;8.370;2023-03-19T12:08:55;98144.63;;;14.18;85.18
18858;BME280;9558;50.178;8.370;2023-03-19T12:11:33;98144.66;;;14.38;84.86
18858;BME280;9558;50.178;8.370;2023-03-19T12:14:19;98149.25;;;14.56;86.27
18858;BME280;9558;50.178;8.370;2023-03-19T12:16:58;98153.88;;;14.74;85.47
18858;BME280;9558;50.178;8.370;2023-03-19T12:20:14;98153.09;;;14.80;84.33
18858;BME280;9558;50.178;8.370;2023-03-19T12:22:53;98162.28;;;14.83;82.44
18858;BME280;9558;50.178;8.370;2023-03-19T12:25:33;98159.91;;;14.68;81.11
18858;BME280;9558;50.178;8.370;2023-03-19T12:28:12;98163.88;;;14.57;81.19
18858;BME280;9558;50.178;8.370;2023-03-19T12:30:48;98163.06;;;14.50;82.17
18858;BME280;9558;50.178;8.370;2023-03-19T12:33:30;98167.47;;;14.43;82.32
18858;BME280;9558;50.178;8.370;2023-03-19T12:36:03;98157.47;;;14.40;82.42
18858;BME280;9558;50.178;8.370;2023-03-19T12:38:36;98167.47;;;14.29;81.90
18858;BME280;9558;50.178;8.370;2023-03-19T12:41:06;98165.06;;;14.21;81.93
18858;BME280;9558;50.178;8.370;2023-03-19T12:43:41;98159.84;;;14.08;81.73
18858;BME280;9558;50.178;8.370;2023-03-19T12:46:13;98158.81;;;13.95;81.47
18858;BME280;9558;50.178;8.370;2023-03-19T12:48:43;98155.59;;;13.87;81.42
18858;BME280;9558;50.178;8.370;2023-03-19T12:51:16;98159.78;;;13.81;82.34
18858;BME280;9558;50.178;8.370;2023-03-19T12:53:47;98156.59;;;13.79;83.24
18858;BME280;9558;50.178;8.370;2023-03-19T12:56:18;98158.56;;;13.77;83.04
18858;BME280;9558;50.178;8.370;2023-03-19T12:58:54;98167.16;;;13.71;84.55
18858;BME280;9558;50.178;8.370;2023-03-19T13:01:26;98161.94;;;13.71;82.96
18858;BME280;9558;50.178;8.370;2023-03-19T13:03:58;98165.72;;;13.61;83.67
18858;BME280;9558;50.178;8.370;2023-03-19T13:06:30;98165.03;;;13.46;82.86
18858;BME280;9558;50.178;8.370;2023-03-19T13:09:03;98166.06;;;13.45;83.78
18858;BME280;9558;50.178;8.370;2023-03-19T13:11:36;98158.41;;;13.37;83.92
18858;BME280;9558;50.178;8.370;2023-03-19T13:14:13;98161.97;;;13.29;84.57
18858;BME280;9558;50.178;8.370;2023-03-19T13:16:46;98167.13;;;13.22;86.11
18858;BME280;9558;50.178;8.370;2023-03-19T13:19:20;98167.50;;;13.19;86.92
18858;BME280;9558;50.178;8.370;2023-03-19T13:21:53;98167.06;;;13.09;90.18